sensor_id;sensor_type;location;lat;lon;timestamp;P1;durP1;ratioP1;P2;durP2;ratioP2
49440;SDS011;35317;51.978;6.296;2023-04-25T00:03:22;2.58;;;1.00;;
49440;SDS011;35317;51.978;6.296;2023-04-25T00:08:25;1.73;;;0.90;;
49440;SDS011;35317;51.978;6.296;2023-04-25T00:13:26;3.63;;;1.00;;
49440;SDS011;35317;51.978;6.296;2023-04-25T00:18:26;5.43;;;1.10;;
49440;SDS011;35317;51.978;6.296;2023-04-25T00:23:29;4.10;;;1.30;;
49440;SDS011;35317;51.978;6.296;2023-04-25T00:28:29;5.30;;;1.38;;
49440;SDS011;35317;51.978;6.296;2023-04-25T00:33:30;3.85;;;1.17;;
49440;SDS011;35317;51.978;6.296;2023-04-25T00:38:31;6.38;;;1.30;;
49440;SDS011;35317;51.978;6.296;2023-04-25T00:43:32;4.30;;;1.50;;
49440;SDS011;35317;51.978;6.296;2023-04-25T00:48:33;5.57;;;1.38;;
49440;SDS011;35317;51.978;6.296;2023-04-25T00:53:34;3.67;;;1.10;;
49440;SDS011;35317;51.978;6.296;2023-04-25T00:58:36;2.75;;;1.30;;
49440;SDS011;35317;51.978;6.296;2023-04-25T01:03:38;4.10;;;1.02;;
49440;SDS011;35317;51.978;6.296;2023-04-25T01:08:42;4.68;;;1.95;;
49440;SDS011;35317;51.978;6.296;2023-04-25T01:13:43;4.57;;;1.95;;
49440;SDS011;35317;51.978;6.296;2023-04-25T01:18:45;4.20;;;1.70;;
49440;SDS011;35317;51.978;6.296;2023-04-25T01:23:46;4.47;;;1.92;;
49440;SDS011;35317;51.978;6.296;2023-04-25T01:28:47;7.22;;;1.83;;
49440;SDS011;35317;51.978;6.296;2023-04-25T01:33:49;4.30;;;1.38;;
49440;SDS011;35317;51.978;6.296;2023-04-25T01:38:50;6.47;;;1.73;;
49440;SDS011;35317;51.978;6.296;2023-04-25T01:43:51;3.78;;;1.30;;
49440;SDS011;35317;51.978;6.296;2023-04-25T01:48:52;4.20;;;1.48;;
49440;SDS011;35317;51.978;6.296;2023-04-25T01:53:52;7.95;;;1.80;;
49440;SDS011;35317;51.978;6.296;2023-04-25T01:58:55;8.10;;;1.30;;
49440;SDS011;35317;51.978;6.296;2023-04-25T02:03:55;4.68;;;1.15;;
49440;SDS011;35317;51.978;6.296;2023-04-25T02:08:56;3.90;;;1.50;;
49440;SDS011;35317;51.978;6.296;2023-04-25T02:13:57;6.43;;;1.23;;
49440;SDS011;35317;51.978;6.296;2023-04-25T02:18:58;6.40;;;1.77;;
49440;SDS011;35317;51.978;6.296;2023-04-25T02:23:59;7.30;;;1.60;;
49440;SDS011;35317;51.978;6.296;2023-04-25T02:28:59;6.80;;;1.60;;
49440;SDS011;35317;51.978;6.296;2023-04-25T02:34:01;12.77;;;1.60;;
49440;SDS011;35317;51.978;6.296;2023-04-25T02:39:02;8.05;;;2.25;;
49440;SDS011;35317;51.978;6.296;2023-04-25T02:44:03;8.18;;;2.00;;
49440;SDS011;35317;51.978;6.296;2023-04-25T02:49:03;7.40;;;1.80;;
49440;SDS011;35317;51.978;6.296;2023-04-25T02:54:05;6.97;;;2.13;;
49440;SDS011;35317;51.978;6.296;2023-04-25T02:59:06;7.78;;;1.75;;
49440;SDS011;35317;51.978;6.296;2023-04-25T03:04:07;3.30;;;1.70;;
49440;SDS011;35317;51.978;6.296;2023-04-25T03:09:08;6.68;;;1.25;;
49440;SDS011;35317;51.978;6.296;2023-04-25T03:14:08;8.52;;;1.90;;
49440;SDS011;35317;51.978;6.296;2023-04-25T03:19:09;6.40;;;1.30;;
49440;SDS011;35317;51.978;6.296;2023-04-25T03:24:10;4.10;;;1.50;;
49440;SDS011;35317;51.978;6.296;2023-04-25T03:29:11;5.15;;;1.70;;
49440;SDS011;35317;51.978;6.296;2023-04-25T03:34:12;2.83;;;1.20;;
49440;SDS011;35317;51.978;6.296;2023-04-25T03:39:14;4.88;;;1.35;;
49440;SDS011;35317;51.978;6.296;2023-04-25T03:44:15;5.47;;;1.38;;
49440;SDS011;35317;51.978;6.296;2023-04-25T03:49:16;7.97;;;1.73;;
49440;SDS011;35317;51.978;6.296;2023-04-25T03:54:17;5.05;;;1.50;;
49440;SDS011;35317;51.978;6.296;2023-04-25T03:59:18;7.50;;;1.67;;
49440;SDS011;35317;51.978;6.296;2023-04-25T04:04:19;5.68;;;1.60;;
49440;SDS011;35317;51.978;6.296;2023-04-25T04:09:19;4.97;;;1.60;;
49440;SDS011;35317;51.978;6.296;2023-04-25T04:14:20;5.35;;;1.90;;
49440;SDS011;35317;51.978;6.296;2023-04-25T04:19:21;6.90;;;1.85;;
49440;SDS011;35317;51.978;6.296;2023-04-25T04:24:22;8.15;;;1.98;;
49440;SDS011;35317;51.978;6.296;2023-04-25T04:29:24;7.03;;;1.75;;
49440;SDS011;35317;51.978;6.296;2023-04-25T04:34:25;3.78;;;1.73;;
49440;SDS011;35317;51.978;6.296;2023-04-25T04:39:27;3.00;;;1.35;;
49440;SDS011;35317;51.978;6.296;2023-04-25T04:44:28;1.80;;;1.00;;
49440;SDS011;35317;51.978;6.296;2023-04-25T04:49:32;5.40;;;1.58;;
49440;SDS011;35317;51.978;6.296;2023-04-25T04:54:33;3.05;;;1.40;;
49440;SDS011;35317;51.978;6.296;2023-04-25T04:59:35;3.55;;;1.17;;
49440;SDS011;35317;51.978;6.296;2023-04-25T05:04:36;4.25;;;1.42;;
49440;SDS011;35317;51.978;6.296;2023-04-25T05:09:37;2.13;;;1.20;;
49440;SDS011;35317;51.978;6.296;2023-04-25T05:14:38;6.15;;;1.20;;
49440;SDS011;35317;51.978;6.296;2023-04-25T05:19:39;2.33;;;1.10;;
49440;SDS011;35317;51.978;6.296;2023-04-25T05:24:39;4.20;;;1.30;;
49440;SDS011;35317;51.978;6.296;2023-04-25T05:29:40;6.72;;;2.00;;
49440;SDS011;35317;51.978;6.296;2023-04-25T05:34:41;3.72;;;1.60;;
49440;SDS011;35317;51.978;6.296;2023-04-25T05:39:42;2.55;;;1.60;;
49440;SDS011;35317;51.978;6.296;2023-04-25T05:44:43;6.72;;;1.92;;
49440;SDS011;35317;51.978;6.296;2023-04-25T05:49:44;2.58;;;1.52;;
49440;SDS011;35317;51.978;6.296;2023-04-25T05:54:45;2.10;;;0.80;;
49440;SDS011;35317;51.978;6.296;2023-04-25T05:59:46;7.95;;;1.13;;
49440;SDS011;35317;51.978;6.296;2023-04-25T06:04:47;1.70;;;0.75;;
49440;SDS011;35317;51.978;6.296;2023-04-25T06:09:50;3.37;;;1.00;;
49440;SDS011;35317;51.978;6.296;2023-04-25T06:14:51;1.67;;;0.70;;
49440;SDS011;35317;51.978;6.296;2023-04-25T06:19:51;1.73;;;0.90;;
49440;SDS011;35317;51.978;6.296;2023-04-25T06:24:52;2.38;;;1.00;;
49440;SDS011;35317;51.978;6.296;2023-04-25T06:29:53;2.60;;;0.80;;
49440;SDS011;35317;51.978;6.296;2023-04-25T06:34:54;1.60;;;0.68;;
49440;SDS011;35317;51.978;6.296;2023-04-25T06:39:55;4.68;;;0.50;;
49440;SDS011;35317;51.978;6.296;2023-04-25T06:44:55;1.42;;;0.50;;
49440;SDS011;35317;51.978;6.296;2023-04-25T06:49:56;2.03;;;0.75;;
49440;SDS011;35317;51.978;6.296;2023-04-25T06:54:57;4.50;;;0.90;;
49440;SDS011;35317;51.978;6.296;2023-04-25T06:59:58;2.05;;;0.57;;
49440;SDS011;35317;51.978;6.296;2023-04-25T07:04:59;5.38;;;0.80;;
49440;SDS011;35317;51.978;6.296;2023-04-25T07:10:00;0.98;;;0.30;;
49440;SDS011;35317;51.978;6.296;2023-04-25T07:15:00;1.55;;;0.70;;
49440;SDS011;35317;51.978;6.296;2023-04-25T07:20:06;1.50;;;0.57;;
49440;SDS011;35317;51.978;6.296;2023-04-25T07:25:09;2.45;;;0.82;;
49440;SDS011;35317;51.978;6.296;2023-04-25T07:30:10;2.47;;;0.85;;
49440;SDS011;35317;51.978;6.296;2023-04-25T07:35:11;2.30;;;1.40;;
49440;SDS011;35317;51.978;6.296;2023-04-25T07:40:11;1.45;;;0.57;;
49440;SDS011;35317;51.978;6.296;2023-04-25T07:45:12;2.22;;;0.60;;
49440;SDS011;35317;51.978;6.296;2023-04-25T07:50:13;3.45;;;0.70;;
49440;SDS011;35317;51.978;6.296;2023-04-25T07:55:14;1.73;;;0.50;;
49440;SDS011;35317;51.978;6.296;2023-04-25T08:00:15;2.63;;;0.55;;
49440;SDS011;35317;51.978;6.296;2023-04-25T08:05:16;2.97;;;0.75;;
49440;SDS011;35317;51.978;6.296;2023-04-25T08:10:17;4.20;;;0.70;;
49440;SDS011;35317;51.978;6.296;2023-04-25T08:15:18;2.08;;;0.93;;
49440;SDS011;35317;51.978;6.296;2023-04-25T08:20:20;6.53;;;0.80;;
49440;SDS011;35317;51.978;6.296;2023-04-25T08:25:21;1.75;;;0.40;;
49440;SDS011;35317;51.978;6.296;2023-04-25T08:30:22;3.15;;;0.90;;
49440;SDS011;35317;51.978;6.296;2023-04-25T08:35:22;2.65;;;0.95;;
49440;SDS011;35317;51.978;6.296;2023-04-25T08:40:23;5.57;;;0.68;;
49440;SDS011;35317;51.978;6.296;2023-04-25T08:45:31;2.35;;;0.68;;
49440;SDS011;35317;51.978;6.296;2023-04-25T08:50:33;1.93;;;0.30;;
49440;SDS011;35317;51.978;6.296;2023-04-25T08:55:36;1.85;;;0.40;;
49440;SDS011;35317;51.978;6.296;2023-04-25T09:00:40;3.65;;;0.65;;
49440;SDS011;35317;51.978;6.296;2023-04-25T09:05:42;0.75;;;0.40;;
49440;SDS011;35317;51.978;6.296;2023-04-25T09:10:42;1.90;;;0.60;;
49440;SDS011;35317;51.978;6.296;2023-04-25T09:15:50;0.30;;;0.30;;
49440;SDS011;35317;51.978;6.296;2023-04-25T09:20:56;1.45;;;0.43;;
49440;SDS011;35317;51.978;6.296;2023-04-25T09:26:06;0.65;;;0.65;;
49440;SDS011;35317;51.978;6.296;2023-04-25T09:31:11;7.38;;;0.73;;
49440;SDS011;35317;51.978;6.296;2023-04-25T09:36:12;4.65;;;0.40;;
49440;SDS011;35317;51.978;6.296;2023-04-25T09:41:13;1.60;;;0.40;;
49440;SDS011;35317;51.978;6.296;2023-04-25T09:46:23;2.47;;;0.40;;
49440;SDS011;35317;51.978;6.296;2023-04-25T09:51:25;1.85;;;0.60;;
49440;SDS011;35317;51.978;6.296;2023-04-25T09:56:27;1.58;;;0.40;;
49440;SDS011;35317;51.978;6.296;2023-04-25T10:01:36;0.52;;;0.47;;
49440;SDS011;35317;51.978;6.296;2023-04-25T10:06:41;2.45;;;0.65;;
49440;SDS011;35317;51.978;6.296;2023-04-25T10:11:44;3.30;;;0.45;;
49440;SDS011;35317;51.978;6.296;2023-04-25T10:16:48;1.75;;;0.40;;
49440;SDS011;35317;51.978;6.296;2023-04-25T10:21:54;3.70;;;0.73;;
49440;SDS011;35317;51.978;6.296;2023-04-25T10:27:06;0.70;;;0.22;;
49440;SDS011;35317;51.978;6.296;2023-04-25T10:32:08;0.38;;;0.22;;
49440;SDS011;35317;51.978;6.296;2023-04-25T10:37:09;0.70;;;0.30;;
49440;SDS011;35317;51.978;6.296;2023-04-25T10:42:11;1.23;;;0.30;;
49440;SDS011;35317;51.978;6.296;2023-04-25T10:47:11;1.20;;;0.30;;
49440;SDS011;35317;51.978;6.296;2023-04-25T10:52:13;1.08;;;0.40;;
49440;SDS011;35317;51.978;6.296;2023-04-25T11:07:54;1.13;;;0.30;;
49440;SDS011;35317;51.978;6.296;2023-04-25T11:12:59;1.05;;;0.43;;
49440;SDS011;35317;51.978;6.296;2023-04-25T11:18:00;0.40;;;0.30;;
49440;SDS011;35317;51.978;6.296;2023-04-25T11:23:00;0.47;;;0.22;;
49440;SDS011;35317;51.978;6.296;2023-04-25T11:28:01;1.15;;;0.40;;
49440;SDS011;35317;51.978;6.296;2023-04-25T11:33:03;0.85;;;0.60;;
49440;SDS011;35317;51.978;6.296;2023-04-25T11:38:03;0.55;;;0.40;;
49440;SDS011;35317;51.978;6.296;2023-04-25T11:43:04;0.65;;;0.40;;
49440;SDS011;35317;51.978;6.296;2023-04-25T11:48:06;3.17;;;0.50;;
49440;SDS011;35317;51.978;6.296;2023-04-25T11:53:07;3.15;;;0.50;;
49440;SDS011;35317;51.978;6.296;2023-04-25T11:58:08;2.25;;;0.35;;
49440;SDS011;35317;51.978;6.296;2023-04-25T12:03:09;3.15;;;0.40;;
49440;SDS011;35317;51.978;6.296;2023-04-25T12:08:10;1.00;;;0.32;;
49440;SDS011;35317;51.978;6.296;2023-04-25T12:13:23;2.08;;;0.60;;
49440;SDS011;35317;51.978;6.296;2023-04-25T12:18:26;1.55;;;0.50;;
49440;SDS011;35317;51.978;6.296;2023-04-25T12:23:28;2.58;;;0.50;;
49440;SDS011;35317;51.978;6.296;2023-04-25T12:28:29;0.93;;;0.40;;
49440;SDS011;35317;51.978;6.296;2023-04-25T12:38:39;0.40;;;0.25;;
49440;SDS011;35317;51.978;6.296;2023-04-25T12:43:42;1.50;;;0.52;;
49440;SDS011;35317;51.978;6.296;2023-04-25T12:48:42;1.05;;;0.52;;
49440;SDS011;35317;51.978;6.296;2023-04-25T12:53:43;3.45;;;0.98;;
49440;SDS011;35317;51.978;6.296;2023-04-25T12:58:44;2.63;;;0.73;;
49440;SDS011;35317;51.978;6.296;2023-04-25T13:03:45;1.73;;;0.40;;
49440;SDS011;35317;51.978;6.296;2023-04-25T13:08:47;1.92;;;0.68;;
49440;SDS011;35317;51.978;6.296;2023-04-25T13:13:48;1.67;;;0.40;;
49440;SDS011;35317;51.978;6.296;2023-04-25T13:18:49;2.20;;;0.43;;
49440;SDS011;35317;51.978;6.296;2023-04-25T13:23:50;0.80;;;0.38;;
49440;SDS011;35317;51.978;6.296;2023-04-25T13:28:51;1.55;;;0.57;;
49440;SDS011;35317;51.978;6.296;2023-04-25T13:33:52;1.65;;;0.65;;
49440;SDS011;35317;51.978;6.296;2023-04-25T13:38:52;1.05;;;0.40;;
49440;SDS011;35317;51.978;6.296;2023-04-25T13:43:53;0.73;;;0.40;;
49440;SDS011;35317;51.978;6.296;2023-04-25T13:48:54;1.40;;;0.50;;
49440;SDS011;35317;51.978;6.296;2023-04-25T13:53:58;0.95;;;0.30;;
49440;SDS011;35317;51.978;6.296;2023-04-25T13:58:59;1.55;;;0.30;;
49440;SDS011;35317;51.978;6.296;2023-04-25T14:03:59;1.38;;;0.68;;
49440;SDS011;35317;51.978;6.296;2023-04-25T14:09:00;1.60;;;0.50;;
49440;SDS011;35317;51.978;6.296;2023-04-25T14:14:01;1.05;;;0.52;;
49440;SDS011;35317;51.978;6.296;2023-04-25T14:19:02;2.72;;;0.55;;
49440;SDS011;35317;51.978;6.296;2023-04-25T14:24:03;3.35;;;0.50;;
49440;SDS011;35317;51.978;6.296;2023-04-25T14:29:05;1.52;;;0.73;;
49440;SDS011;35317;51.978;6.296;2023-04-25T14:34:11;1.33;;;0.40;;
49440;SDS011;35317;51.978;6.296;2023-04-25T14:39:12;2.80;;;0.40;;
49440;SDS011;35317;51.978;6.296;2023-04-25T14:44:14;1.65;;;0.40;;
49440;SDS011;35317;51.978;6.296;2023-04-25T14:49:15;0.65;;;0.40;;
49440;SDS011;35317;51.978;6.296;2023-04-25T14:54:16;2.45;;;0.60;;
49440;SDS011;35317;51.978;6.296;2023-04-25T14:59:17;1.63;;;0.40;;
49440;SDS011;35317;51.978;6.296;2023-04-25T15:04:17;1.65;;;0.38;;
49440;SDS011;35317;51.978;6.296;2023-04-25T15:09:18;2.05;;;0.40;;
49440;SDS011;35317;51.978;6.296;2023-04-25T15:14:19;2.55;;;0.60;;
49440;SDS011;35317;51.978;6.296;2023-04-25T15:19:20;2.53;;;0.60;;
49440;SDS011;35317;51.978;6.296;2023-04-25T15:24:21;2.35;;;0.40;;
49440;SDS011;35317;51.978;6.296;2023-04-25T15:29:22;1.80;;;0.52;;
49440;SDS011;35317;51.978;6.296;2023-04-25T15:34:22;0.98;;;0.50;;
49440;SDS011;35317;51.978;6.296;2023-04-25T15:39:23;1.38;;;0.30;;
49440;SDS011;35317;51.978;6.296;2023-04-25T15:44:24;0.68;;;0.40;;
49440;SDS011;35317;51.978;6.296;2023-04-25T15:49:25;0.70;;;0.32;;
49440;SDS011;35317;51.978;6.296;2023-04-25T15:54:27;1.67;;;0.38;;
49440;SDS011;35317;51.978;6.296;2023-04-25T15:59:28;3.22;;;0.52;;
49440;SDS011;35317;51.978;6.296;2023-04-25T16:04:29;2.17;;;0.63;;
49440;SDS011;35317;51.978;6.296;2023-04-25T16:09:34;2.13;;;0.75;;
49440;SDS011;35317;51.978;6.296;2023-04-25T16:14:36;0.38;;;0.30;;
49440;SDS011;35317;51.978;6.296;2023-04-25T16:19:37;2.17;;;0.50;;
49440;SDS011;35317;51.978;6.296;2023-04-25T16:24:38;1.55;;;0.40;;
49440;SDS011;35317;51.978;6.296;2023-04-25T16:29:40;1.10;;;0.40;;
49440;SDS011;35317;51.978;6.296;2023-04-25T16:34:41;0.85;;;0.52;;
49440;SDS011;35317;51.978;6.296;2023-04-25T16:39:42;0.95;;;0.40;;
49440;SDS011;35317;51.978;6.296;2023-04-25T16:44:43;1.58;;;0.30;;
49440;SDS011;35317;51.978;6.296;2023-04-25T16:49:43;1.50;;;0.60;;
49440;SDS011;35317;51.978;6.296;2023-04-25T16:54:44;1.15;;;0.30;;
49440;SDS011;35317;51.978;6.296;2023-04-25T16:59:45;2.63;;;0.60;;
49440;SDS011;35317;51.978;6.296;2023-04-25T17:04:46;1.27;;;0.63;;
49440;SDS011;35317;51.978;6.296;2023-04-25T17:09:47;2.30;;;0.70;;
49440;SDS011;35317;51.978;6.296;2023-04-25T17:14:48;1.02;;;0.50;;
49440;SDS011;35317;51.978;6.296;2023-04-25T17:19:49;0.55;;;0.28;;
49440;SDS011;35317;51.978;6.296;2023-04-25T17:24:49;1.05;;;0.43;;
49440;SDS011;35317;51.978;6.296;2023-04-25T17:29:50;0.90;;;0.60;;
49440;SDS011;35317;51.978;6.296;2023-04-25T17:34:51;2.75;;;0.52;;
49440;SDS011;35317;51.978;6.296;2023-04-25T17:39:52;1.67;;;0.47;;
49440;SDS011;35317;51.978;6.296;2023-04-25T17:44:52;1.35;;;0.50;;
49440;SDS011;35317;51.978;6.296;2023-04-25T17:49:57;1.15;;;0.68;;
49440;SDS011;35317;51.978;6.296;2023-04-25T17:54:58;1.90;;;0.50;;
49440;SDS011;35317;51.978;6.296;2023-04-25T17:59:59;0.50;;;0.45;;
49440;SDS011;35317;51.978;6.296;2023-04-25T18:05:00;1.50;;;0.60;;
49440;SDS011;35317;51.978;6.296;2023-04-25T18:10:08;2.08;;;0.32;;
49440;SDS011;35317;51.978;6.296;2023-04-25T18:15:10;2.00;;;0.43;;
49440;SDS011;35317;51.978;6.296;2023-04-25T18:20:12;0.70;;;0.43;;
49440;SDS011;35317;51.978;6.296;2023-04-25T18:25:14;2.97;;;1.00;;
49440;SDS011;35317;51.978;6.296;2023-04-25T18:30:15;4.40;;;0.55;;
49440;SDS011;35317;51.978;6.296;2023-04-25T18:35:16;3.25;;;0.90;;
49440;SDS011;35317;51.978;6.296;2023-04-25T18:40:17;2.47;;;1.00;;
49440;SDS011;35317;51.978;6.296;2023-04-25T18:45:18;1.13;;;0.60;;
49440;SDS011;35317;51.978;6.296;2023-04-25T18:50:19;2.78;;;0.88;;
49440;SDS011;35317;51.978;6.296;2023-04-25T18:55:22;1.63;;;0.77;;
49440;SDS011;35317;51.978;6.296;2023-04-25T19:00:23;1.05;;;0.70;;
49440;SDS011;35317;51.978;6.296;2023-04-25T19:05:34;1.67;;;0.80;;
49440;SDS011;35317;51.978;6.296;2023-04-25T19:10:35;4.78;;;0.88;;
49440;SDS011;35317;51.978;6.296;2023-04-25T19:15:36;2.50;;;0.73;;
49440;SDS011;35317;51.978;6.296;2023-04-25T19:20:38;1.08;;;0.60;;
49440;SDS011;35317;51.978;6.296;2023-04-25T19:25:40;3.72;;;0.70;;
49440;SDS011;35317;51.978;6.296;2023-04-25T19:30:41;3.20;;;0.90;;
49440;SDS011;35317;51.978;6.296;2023-04-25T19:35:44;2.10;;;0.60;;
49440;SDS011;35317;51.978;6.296;2023-04-25T19:40:46;2.00;;;0.68;;
49440;SDS011;35317;51.978;6.296;2023-04-25T19:45:47;1.35;;;0.68;;
49440;SDS011;35317;51.978;6.296;2023-04-25T19:50:48;2.13;;;0.68;;
49440;SDS011;35317;51.978;6.296;2023-04-25T19:55:50;1.67;;;0.82;;
49440;SDS011;35317;51.978;6.296;2023-04-25T20:00:50;2.97;;;0.85;;
49440;SDS011;35317;51.978;6.296;2023-04-25T20:05:52;2.60;;;0.88;;
49440;SDS011;35317;51.978;6.296;2023-04-25T20:10:52;2.45;;;0.80;;
49440;SDS011;35317;51.978;6.296;2023-04-25T20:15:53;2.72;;;0.60;;
49440;SDS011;35317;51.978;6.296;2023-04-25T20:20:54;4.13;;;1.20;;
49440;SDS011;35317;51.978;6.296;2023-04-25T20:25:55;1.55;;;0.93;;
49440;SDS011;35317;51.978;6.296;2023-04-25T20:30:56;2.72;;;1.10;;
49440;SDS011;35317;51.978;6.296;2023-04-25T20:35:58;2.10;;;1.23;;
49440;SDS011;35317;51.978;6.296;2023-04-25T20:40:59;2.85;;;1.08;;
49440;SDS011;35317;51.978;6.296;2023-04-25T20:46:00;4.15;;;1.20;;
49440;SDS011;35317;51.978;6.296;2023-04-25T20:51:00;1.23;;;1.13;;
49440;SDS011;35317;51.978;6.296;2023-04-25T20:56:03;3.47;;;1.00;;
49440;SDS011;35317;51.978;6.296;2023-04-25T21:01:05;4.63;;;1.00;;
49440;SDS011;35317;51.978;6.296;2023-04-25T21:06:08;6.97;;;1.40;;
49440;SDS011;35317;51.978;6.296;2023-04-25T21:11:09;2.35;;;1.13;;
49440;SDS011;35317;51.978;6.296;2023-04-25T21:16:11;2.00;;;0.85;;
49440;SDS011;35317;51.978;6.296;2023-04-25T21:21:12;5.35;;;1.13;;
49440;SDS011;35317;51.978;6.296;2023-04-25T21:26:13;3.03;;;1.25;;
49440;SDS011;35317;51.978;6.296;2023-04-25T21:31:14;2.20;;;1.35;;
49440;SDS011;35317;51.978;6.296;2023-04-25T21:36:15;3.42;;;1.30;;
49440;SDS011;35317;51.978;6.296;2023-04-25T21:41:16;3.75;;;1.60;;
49440;SDS011;35317;51.978;6.296;2023-04-25T21:46:17;2.88;;;1.65;;
49440;SDS011;35317;51.978;6.296;2023-04-25T21:51:18;4.95;;;1.40;;
49440;SDS011;35317;51.978;6.296;2023-04-25T21:56:19;3.08;;;1.60;;
49440;SDS011;35317;51.978;6.296;2023-04-25T22:01:20;4.45;;;1.80;;
49440;SDS011;35317;51.978;6.296;2023-04-25T22:06:21;5.97;;;2.10;;
49440;SDS011;35317;51.978;6.296;2023-04-25T22:11:22;6.57;;;2.40;;
49440;SDS011;35317;51.978;6.296;2023-04-25T22:16:23;4.60;;;2.03;;
49440;SDS011;35317;51.978;6.296;2023-04-25T22:21:24;7.13;;;1.88;;
49440;SDS011;35317;51.978;6.296;2023-04-25T22:26:26;4.43;;;1.83;;
49440;SDS011;35317;51.978;6.296;2023-04-25T22:31:29;3.35;;;1.90;;
49440;SDS011;35317;51.978;6.296;2023-04-25T22:36:30;5.90;;;1.85;;
49440;SDS011;35317;51.978;6.296;2023-04-25T22:41:30;4.45;;;1.63;;
49440;SDS011;35317;51.978;6.296;2023-04-25T22:46:31;2.95;;;1.77;;
49440;SDS011;35317;51.978;6.296;2023-04-25T22:51:32;5.05;;;1.88;;
49440;SDS011;35317;51.978;6.296;2023-04-25T22:56:33;5.20;;;2.10;;
49440;SDS011;35317;51.978;6.296;2023-04-25T23:01:34;3.70;;;1.80;;
49440;SDS011;35317;51.978;6.296;2023-04-25T23:06:35;2.67;;;1.48;;
49440;SDS011;35317;51.978;6.296;2023-04-25T23:11:37;10.55;;;1.98;;
49440;SDS011;35317;51.978;6.296;2023-04-25T23:16:40;5.15;;;2.08;;
49440;SDS011;35317;51.978;6.296;2023-04-25T23:21:41;3.67;;;2.10;;
49440;SDS011;35317;51.978;6.296;2023-04-25T23:26:42;6.63;;;2.30;;
49440;SDS011;35317;51.978;6.296;2023-04-25T23:31:43;3.67;;;1.80;;
49440;SDS011;35317;51.978;6.296;2023-04-25T23:36:44;5.03;;;1.83;;
49440;SDS011;35317;51.978;6.296;2023-04-25T23:41:45;5.68;;;1.95;;
49440;SDS011;35317;51.978;6.296;2023-04-25T23:46:46;3.88;;;2.20;;
49440;SDS011;35317;51.978;6.296;2023-04-25T23:51:47;5.93;;;2.35;;
49440;SDS011;35317;51.978;6.296;2023-04-25T23:56:47;4.07;;;2.03;;
